Time;durP1;ratioP1;P1;durP2;ratioP2;P2;SDS_P1;SDS_P2;PMS_P1;PMS_P2;Temp;Humidity;BMP_temperature;BMP_pressure;BME280_temperature;BME280_humidity;BME280_pressure;Samples;Min_cycle;Max_cycle;Signal;HPM_P1;HPM_P2
2022/08/02 00:00:53;;;;;;;4.9;3;;;;;;;18.99;92.35742;941.7664;;;;
2022/08/02 00:03:27;;;;;;;2.8;2.3;;;;;;;18.98;89.54004;941.752;;;;
2022/08/02 00:06:00;;;;;;;2.5;2.2;;;;;;;18.95;90.08203;941.7388;;;;
2022/08/02 00:08:36;;;;;;;3.1;2.5;;;;;;;19.03;89.87598;941.7927;;;;
2022/08/02 00:11:13;;;;;;;4.3;2.3;;;;;;;18.92;90.46875;941.7911;;;;
2022/08/02 00:13:45;;;;;;;2.9;2.3;;;;;;;18.91;90.31543;941.8373;;;;
2022/08/02 00:16:30;;;;;;;4;2.2;;;;;;;18.89;90.42773;941.8755;;;;
2022/08/02 00:19:01;;;;;;;3.1;2.6;;;;;;;18.85;89.89648;941.9117;;;;
2022/08/02 00:21:46;;;;;;;3.4;2.2;;;;;;;18.79;92.44434;941.8914;;;;
2022/08/02 00:24:12;;;;;;;4;2.7;;;;;;;18.83;92.65137;941.8903;;;;
2022/08/02 00:26:45;;;;;;;3.7;2.2;;;;;;;18.83;92.1875;941.9256;;;;
2022/08/02 00:29:28;;;;;;;3.9;2.7;;;;;;;18.75;93.49512;941.8992;;;;
2022/08/02 00:32:05;;;;;;;4.3;2.9;;;;;;;18.54;95.0791;941.8738;;;;
2022/08/02 00:34:34;;;;;;;6.5;3.1;;;;;;;18.28;96.66113;941.762;;;;
2022/08/02 00:37:04;;;;;;;3.6;2.9;;;;;;;18.31;96.7832;941.7729;;;;
2022/08/02 00:39:37;;;;;;;6.1;3.1;;;;;;;18.45;96.12695;941.8027;;;;
2022/08/02 00:42:08;;;;;;;5.7;3.2;;;;;;;18.4;96.10547;941.7442;;;;
2022/08/02 00:44:47;;;;;;;4.7;3.1;;;;;;;18.3;96.07227;941.6844;;;;
2022/08/02 00:47:31;;;;;;;5.1;3.1;;;;;;;18.31;96.8877;941.5424;;;;
2022/08/02 00:50:00;;;;;;;3.7;2.8;;;;;;;18.32;95.92578;941.5496;;;;
2022/08/02 00:52:32;;;;;;;3;2.4;;;;;;;18.44;96.13867;941.4995;;;;
2022/08/02 00:55:02;;;;;;;2.8;2.5;;;;;;;18.51;95.21289;941.5023;;;;
2022/08/02 00:57:35;;;;;;;4.2;2.8;;;;;;;18.59;94.91406;941.5117;;;;
2022/08/02 01:00:05;;;;;;;2.8;2.5;;;;;;;18.59;93.85645;941.4906;;;;
2022/08/02 01:02:34;;;;;;;3.8;2.4;;;;;;;18.51;94.55957;941.4097;;;;
2022/08/02 01:05:02;;;;;;;3.3;2.8;;;;;;;18.49;95.29004;941.2914;;;;
2022/08/02 01:07:27;;;;;;;3.3;2.3;;;;;;;18.54;96.20508;941.1705;;;;
2022/08/02 01:09:55;;;;;;;4.7;2.7;;;;;;;18.42;94.77246;941.1803;;;;
2022/08/02 01:12:20;;;;;;;3.1;2.5;;;;;;;18.38;94.96289;941.1422;;;;
2022/08/02 01:14:46;;;;;;;2.9;2.3;;;;;;;18.35;95.07324;941.1128;;;;
2022/08/02 01:17:18;;;;;;;3.8;2.7;;;;;;;18.27;95.21777;941.0488;;;;
2022/08/02 01:19:43;;;;;;;3.5;2.5;;;;;;;18.29;95.79199;941.0854;;;;
2022/08/02 01:22:10;;;;;;;3.9;2.3;;;;;;;18.28;95.75488;941.0591;;;;
2022/08/02 01:24:35;;;;;;;2.9;2.5;;;;;;;18.23;95.32617;940.9889;;;;
2022/08/02 01:27:06;;;;;;;2.6;2.4;;;;;;;18.1;96.54004;941.0552;;;;
2022/08/02 01:29:31;;;;;;;3;2.7;;;;;;;18.04;96.86523;940.9947;;;;
2022/08/02 01:31:56;;;;;;;2.9;2.5;;;;;;;18.01;97.03125;941.0344;;;;
2022/08/02 01:34:21;;;;;;;2.8;2.5;;;;;;;17.93;97.6875;940.9904;;;;
2022/08/02 01:36:51;;;;;;;3.7;2.4;;;;;;;17.83;98.71973;941.0273;;;;
2022/08/02 01:39:21;;;;;;;3.4;2.7;;;;;;;17.75;99.36719;940.991;;;;
2022/08/02 01:41:47;;;;;;;3.1;2;;;;;;;17.82;99.45117;940.9805;;;;
2022/08/02 01:44:12;;;;;;;3.6;2.3;;;;;;;17.84;98.67969;941.0078;;;;
2022/08/02 01:46:37;;;;;;;2.9;1.8;;;;;;;17.86;97.96387;940.9906;;;;
2022/08/02 01:49:06;;;;;;;3.5;2.5;;;;;;;17.88;98.46484;940.9332;;;;
2022/08/02 01:53:56;;;;;;;3.2;2.2;;;;;;;17.74;97.95801;940.8567;;;;
2022/08/02 01:56:22;;;;;;;3;2.3;;;;;;;17.86;99.05469;940.844;;;;
2022/08/02 01:58:47;;;;;;;4.1;2.3;;;;;;;18.04;98.9209;940.8497;;;;
2022/08/02 02:01:19;;;;;;;4.2;2.5;;;;;;;18.17;97.86914;940.8655;;;;
2022/08/02 02:03:45;;;;;;;3.4;2.6;;;;;;;18.27;97.64551;940.882;;;;
2022/08/02 02:06:17;;;;;;;2.7;2.4;;;;;;;18.33;97.42676;940.8922;;;;
2022/08/02 02:08:45;;;;;;;2.9;2.2;;;;;;;18.35;96.83789;940.8951;;;;
2022/08/02 02:11:10;;;;;;;2.7;2.2;;;;;;;18.37;96.72949;940.8406;;;;
2022/08/02 02:13:36;;;;;;;3.3;2.5;;;;;;;18.31;96.2041;940.8159;;;;
2022/08/02 02:16:01;;;;;;;2.7;2.1;;;;;;;18.41;95.96777;940.8361;;;;
2022/08/02 02:18:27;;;;;;;2.7;2;;;;;;;18.4;96.64063;940.8024;;;;
2022/08/02 02:20:58;;;;;;;3.4;2.7;;;;;;;18.44;96.35938;940.7664;;;;
2022/08/02 02:23:27;;;;;;;4.6;2.3;;;;;;;18.52;96.27051;940.7184;;;;
2022/08/02 02:25:52;;;;;;;3;2.2;;;;;;;18.53;95.72852;940.6989;;;;
2022/08/02 02:28:18;;;;;;;2.9;2.3;;;;;;;18.58;95.42383;940.6972;;;;
2022/08/02 02:30:43;;;;;;;3.2;2;;;;;;;18.54;94.70703;940.6615;;;;
2022/08/02 02:33:13;;;;;;;2.7;2.2;;;;;;;18.57;94.44336;940.6965;;;;
2022/08/02 02:35:44;;;;;;;2.9;2.2;;;;;;;18.58;94.71484;940.5753;;;;
2022/08/02 02:38:09;;;;;;;2.9;2.2;;;;;;;18.55;94.94141;940.6049;;;;
2022/08/02 02:40:38;;;;;;;2.8;2.3;;;;;;;18.56;95.29199;940.6121;;;;
2022/08/02 02:43:03;;;;;;;2.6;2;;;;;;;18.53;95.33301;940.5714;;;;
2022/08/02 02:45:30;;;;;;;2.4;2.2;;;;;;;18.51;95.4082;940.5984;;;;
2022/08/02 02:47:55;;;;;;;3.8;2;;;;;;;18.49;96.27637;940.535;;;;
2022/08/02 02:50:24;;;;;;;2.9;2.3;;;;;;;18.51;95.81543;940.562;;;;
2022/08/02 02:52:49;;;;;;;3.5;2.3;;;;;;;18.5;95.4082;940.6066;;;;
2022/08/02 02:55:16;;;;;;;3.1;2.4;;;;;;;18.43;95.44922;940.64;;;;
2022/08/02 02:57:41;;;;;;;3.1;2.1;;;;;;;18.41;94.80566;940.6763;;;;
2022/08/02 03:00:09;;;;;;;2.6;2.1;;;;;;;18.34;94.90625;940.6091;;;;
2022/08/02 03:02:34;;;;;;;2.2;1.9;;;;;;;18.31;95.08887;940.7078;;;;
2022/08/02 03:05:01;;;;;;;2.3;2;;;;;;;18.35;94.46875;940.6426;;;;
2022/08/02 03:07:30;;;;;;;2.5;2.2;;;;;;;18.34;94.01367;940.7316;;;;
2022/08/02 03:09:55;;;;;;;2.4;2.1;;;;;;;18.4;93.93164;940.7217;;;;
2022/08/02 03:12:22;;;;;;;2.4;2.2;;;;;;;18.34;95.17578;940.6992;;;;
2022/08/02 03:14:47;;;;;;;1.5;1.4;;;;;;;18.2;94.08691;940.7101;;;;
2022/08/02 03:17:17;;;;;;;1.9;1.5;;;;;;;18.17;93.11719;940.6381;;;;
2022/08/02 03:19:41;;;;;;;1.4;1.3;;;;;;;18.05;94.1123;940.7117;;;;
2022/08/02 03:22:07;;;;;;;1.5;1.4;;;;;;;18.04;95.37598;940.7111;;;;
2022/08/02 03:24:32;;;;;;;2;1.7;;;;;;;18.01;95.55469;940.7291;;;;
2022/08/02 03:26:59;;;;;;;2.1;1.6;;;;;;;17.95;95.82129;940.7017;;;;
2022/08/02 03:29:24;;;;;;;2.5;1.5;;;;;;;17.87;95.38574;940.6506;;;;
2022/08/02 03:31:51;;;;;;;2;1.8;;;;;;;17.84;95.9375;940.6501;;;;
2022/08/02 03:34:17;;;;;;;2.6;1.6;;;;;;;17.85;96.1709;940.6838;;;;
2022/08/02 03:36:44;;;;;;;2;1.7;;;;;;;17.83;96.3877;940.6519;;;;
2022/08/02 03:39:09;;;;;;;2;1.9;;;;;;;17.83;96.4209;940.6713;;;;
2022/08/02 03:41:34;;;;;;;1.9;1.6;;;;;;;17.71;97.31445;940.6969;;;;
2022/08/02 03:44:02;;;;;;;1.6;1.5;;;;;;;17.73;96.9834;940.6869;;;;
2022/08/02 03:46:27;;;;;;;1.6;1.5;;;;;;;17.8;96.23145;940.6722;;;;
2022/08/02 03:48:54;;;;;;;2.1;1.9;;;;;;;17.83;95.93359;940.6729;;;;
2022/08/02 03:51:20;;;;;;;2.1;1.9;;;;;;;17.78;95.84375;940.5765;;;;
2022/08/02 03:53:45;;;;;;;3.2;1.9;;;;;;;17.7;96.45313;940.5825;;;;
2022/08/02 03:56:10;;;;;;;2;1.8;;;;;;;17.72;96.18848;940.6089;;;;
2022/08/02 03:58:36;;;;;;;2.1;1.9;;;;;;;17.76;96.18848;940.6831;;;;
2022/08/02 04:02:36;;;;;;;2.7;2;;;;;;;17.69;95.2793;940.6962;;;;
2022/08/02 04:05:01;;;;;;;2.3;1.9;;;;;;;17.71;94.67871;940.6493;;;;
2022/08/02 04:07:28;;;;;;;2.4;2;;;;;;;17.73;94.13965;940.6965;;;;
2022/08/02 04:09:53;;;;;;;2;1.8;;;;;;;17.67;94.28613;940.7389;;;;
2022/08/02 04:12:18;;;;;;;2.3;2.1;;;;;;;17.68;94.79883;940.6763;;;;
2022/08/02 04:14:44;;;;;;;3;2.1;;;;;;;17.75;94.89746;940.6833;;;;
2022/08/02 04:17:12;;;;;;;3;1.9;;;;;;;17.68;95.48535;940.7173;;;;
2022/08/02 04:19:37;;;;;;;2.3;1.8;;;;;;;17.62;96.05078;940.6825;;;;
2022/08/02 04:22:06;;;;;;;1.6;1.5;;;;;;;17.53;95.61523;940.7389;;;;
2022/08/02 04:24:32;;;;;;;1.9;1.7;;;;;;;17.51;95.81738;940.699;;;;
2022/08/02 04:27:00;;;;;;;2.3;1.7;;;;;;;17.52;95.38086;940.6522;;;;
2022/08/02 04:29:25;;;;;;;2;1.8;;;;;;;17.63;95.05664;940.6961;;;;
2022/08/02 04:31:52;;;;;;;1.7;1.6;;;;;;;17.66;95.05078;940.6924;;;;
2022/08/02 04:34:18;;;;;;;1.6;1.5;;;;;;;17.67;94.57617;940.722;;;;
2022/08/02 04:36:43;;;;;;;1.5;1.4;;;;;;;17.69;93.97656;940.7076;;;;
2022/08/02 04:39:08;;;;;;;1.8;1.4;;;;;;;17.66;94.20508;940.8156;;;;
2022/08/02 04:41:35;;;;;;;2;1.5;;;;;;;17.7;93.94434;940.8234;;;;
2022/08/02 04:44:00;;;;;;;2.3;1.4;;;;;;;17.76;93.7041;940.8555;;;;
2022/08/02 04:46:29;;;;;;;2;1.8;;;;;;;17.83;93.31152;940.9363;;;;
2022/08/02 04:48:54;;;;;;;2;1.5;;;;;;;17.87;93.02832;940.8608;;;;
2022/08/02 04:51:21;;;;;;;1.3;1.2;;;;;;;17.95;92.7207;940.8894;;;;
2022/08/02 04:53:46;;;;;;;1.6;1.4;;;;;;;17.82;92.29883;940.8655;;;;
2022/08/02 04:56:13;;;;;;;1.3;1.2;;;;;;;17.67;92.8125;940.8904;;;;
2022/08/02 04:58:38;;;;;;;1.5;1.4;;;;;;;17.69;92.85352;940.8348;;;;
2022/08/02 05:01:04;;;;;;;1.4;1.3;;;;;;;17.61;92.84766;940.8497;;;;
2022/08/02 05:03:29;;;;;;;1.9;1.2;;;;;;;17.56;93.11621;940.906;;;;
2022/08/02 05:05:59;;;;;;;1.4;1.3;;;;;;;17.57;93.47656;940.9221;;;;
2022/08/02 05:08:23;;;;;;;1.8;1.6;;;;;;;17.53;93.63086;940.991;;;;
2022/08/02 05:10:48;;;;;;;1.7;1.3;;;;;;;17.63;93.1416;941.0214;;;;
2022/08/02 05:13:13;;;;;;;2.4;1.4;;;;;;;17.66;93.16113;941.0016;;;;
2022/08/02 05:15:43;;;;;;;2.6;1.4;;;;;;;17.76;93.41211;941.0167;;;;
2022/08/02 05:18:08;;;;;;;1.9;1.3;;;;;;;17.59;92.44922;941.053;;;;
2022/08/02 05:20:33;;;;;;;2.7;1.3;;;;;;;17.6;92.52051;941.0142;;;;
2022/08/02 05:22:59;;;;;;;3.1;1.6;;;;;;;17.64;93.39844;940.9407;;;;
2022/08/02 05:28:25;;;;;;;2.4;1.6;;;;;;;17.81;95.39746;941.0119;;;;
2022/08/02 05:30:50;;;;;;;0.9;0.9;;;;;;;19.07;89.84961;940.9968;;;;
2022/08/02 05:33:18;;;;;;;1.2;1.1;;;;;;;20.77;80.41309;940.9636;;;;
2022/08/02 05:35:43;;;;;;;1.9;1;;;;;;;22.33;73.15332;940.905;;;;
2022/08/02 05:38:12;;;;;;;1.9;0.8;;;;;;;22.5;71.02246;940.9981;;;;
2022/08/02 05:40:42;;;;;;;0.6;0.6;;;;;;;23.51;65.83301;941.0109;;;;
2022/08/02 05:43:10;;;;;;;1.2;0.7;;;;;;;24.87;62.90918;940.9905;;;;
2022/08/02 05:45:36;;;;;;;0.8;0.8;;;;;;;25.27;60.49707;941.0757;;;;
2022/08/02 05:48:07;;;;;;;1.1;0.8;;;;;;;25.62;58.38086;941.0541;;;;
2022/08/02 05:50:37;;;;;;;1;0.8;;;;;;;26.81;55.70508;941.005;;;;
2022/08/02 05:53:02;;;;;;;0.6;0.6;;;;;;;26.98;51.89941;941.0062;;;;
2022/08/02 05:55:29;;;;;;;1;0.7;;;;;;;25.95;55.85938;941.1284;;;;
2022/08/02 05:57:54;;;;;;;0.6;0.6;;;;;;;26.26;56.28809;941.1284;;;;
2022/08/02 06:00:23;;;;;;;1.2;0.9;;;;;;;27.8;53.08691;941.0862;;;;
2022/08/02 06:02:48;;;;;;;1.6;0.5;;;;;;;28.24;50.93945;941.1265;;;;
2022/08/02 06:05:15;;;;;;;2.1;0.9;;;;;;;27.59;50.35547;941.0901;;;;
2022/08/02 06:07:40;;;;;;;2.2;0.8;;;;;;;28.06;50.01563;941.1142;;;;
2022/08/02 06:10:05;;;;;;;1.1;0.9;;;;;;;27.47;50.91211;941.1236;;;;
2022/08/02 06:12:33;;;;;;;0.7;0.7;;;;;;;28.03;49.87012;941.1448;;;;
2022/08/02 06:15:00;;;;;;;0.6;0.5;;;;;;;25.57;54.17969;941.1699;;;;
2022/08/02 06:17:26;;;;;;;1.6;0.9;;;;;;;26.4;55.39453;941.1786;;;;
2022/08/02 06:19:51;;;;;;;1.7;0.8;;;;;;;27.22;52.13965;941.2009;;;;
2022/08/02 06:22:16;;;;;;;0.5;0.5;;;;;;;26.73;54.41699;941.2375;;;;
2022/08/02 06:24:45;;;;;;;0.8;0.7;;;;;;;26.61;54.12891;941.2153;;;;
2022/08/02 06:27:10;;;;;;;1.6;0.8;;;;;;;25.78;57.51563;941.1936;;;;
2022/08/02 06:29:37;;;;;;;1.3;0.7;;;;;;;26.01;54.15234;941.2145;;;;
2022/08/02 06:32:02;;;;;;;0.6;0.6;;;;;;;25.94;54.10938;941.2094;;;;
2022/08/02 06:34:28;;;;;;;0.8;0.6;;;;;;;25.72;55.00195;941.2355;;;;
2022/08/02 06:36:53;;;;;;;0.8;0.7;;;;;;;26.71;55.36133;941.2417;;;;
2022/08/02 06:39:18;;;;;;;1.1;0.9;;;;;;;27.52;50.79785;941.2885;;;;
2022/08/02 06:41:43;;;;;;;1.2;0.7;;;;;;;27.23;53.5166;941.2285;;;;
2022/08/02 06:44:13;;;;;;;1.5;0.9;;;;;;;26.82;52.12891;941.2104;;;;
2022/08/02 06:46:43;;;;;;;1.7;1;;;;;;;29.26;47.95801;941.1912;;;;
2022/08/02 06:49:08;;;;;;;0.8;0.8;;;;;;;30.79;43.81836;941.1509;;;;
2022/08/02 06:51:33;;;;;;;1.5;0.7;;;;;;;32.01;41.33496;941.1158;;;;
2022/08/02 06:53:59;;;;;;;2.3;0.9;;;;;;;31.61;42.4834;941.1294;;;;
2022/08/02 06:56:26;;;;;;;2.5;1;;;;;;;32.02;41.07227;941.0804;;;;
2022/08/02 06:58:54;;;;;;;0.9;0.7;;;;;;;29.8;46.52441;941.0062;;;;
2022/08/02 07:01:19;;;;;;;0.8;0.6;;;;;;;31.54;40.93359;941.0421;;;;
2022/08/02 07:03:46;;;;;;;0.9;0.6;;;;;;;31.22;40.25781;940.9778;;;;
2022/08/02 07:06:11;;;;;;;1.2;0.7;;;;;;;30.48;43.40527;940.9447;;;;
2022/08/02 07:08:40;;;;;;;1.3;0.7;;;;;;;31.48;41.09473;940.947;;;;
2022/08/02 07:11:10;;;;;;;0.6;0.6;;;;;;;31;41.31445;940.9358;;;;
2022/08/02 07:13:35;;;;;;;1.8;0.7;;;;;;;32.15;39.04688;940.9092;;;;
2022/08/02 07:16:04;;;;;;;0.6;0.6;;;;;;;31.65;38.25977;940.9286;;;;
2022/08/02 07:18:29;;;;;;;1.1;0.8;;;;;;;28.38;46.12793;940.9603;;;;
2022/08/02 07:20:56;;;;;;;2;0.7;;;;;;;30.72;43.09375;940.9197;;;;
2022/08/02 07:23:21;;;;;;;0.7;0.7;;;;;;;31.86;40.12305;940.8914;;;;
2022/08/02 07:25:49;;;;;;;0.6;0.6;;;;;;;32.99;37.46094;940.882;;;;
2022/08/02 07:28:15;;;;;;;0.6;0.6;;;;;;;32.72;38.08594;940.8649;;;;
2022/08/02 07:30:44;;;;;;;0.8;0.8;;;;;;;31.32;42.0498;940.892;;;;
2022/08/02 07:33:13;;;;;;;1;0.6;;;;;;;33.8;35.79395;940.908;;;;
2022/08/02 07:35:38;;;;;;;0.5;0.5;;;;;;;34.84;33.45215;940.8331;;;;
2022/08/02 07:38:08;;;;;;;1.2;0.9;;;;;;;31.79;38.41602;940.8058;;;;
2022/08/02 07:40:34;;;;;;;0.8;0.6;;;;;;;32.61;37.50098;940.851;;;;
2022/08/02 07:42:59;;;;;;;0.5;0.5;;;;;;;33.8;35.62598;940.7963;;;;
2022/08/02 07:45:30;;;;;;;0.6;0.6;;;;;;;35.22;33.1416;940.7478;;;;
2022/08/02 07:47:53;;;;;;;0.6;0.6;;;;;;;35.95;32.51855;940.7664;;;;
2022/08/02 07:50:27;;;;;;;0.8;0.8;;;;;;;36.97;33.40234;940.8108;;;;
2022/08/02 07:52:51;;;;;;;0.8;0.8;;;;;;;35.44;32.94043;940.7721;;;;
2022/08/02 07:55:21;;;;;;;1.2;0.7;;;;;;;34.34;35.15039;940.7678;;;;
2022/08/02 07:57:49;;;;;;;2.8;0.7;;;;;;;32.99;36.53613;940.7538;;;;
2022/08/02 08:00:14;;;;;;;1;0.7;;;;;;;35.26;34.84668;940.731;;;;
2022/08/02 08:02:39;;;;;;;0.6;0.6;;;;;;;36.03;32.65723;940.7025;;;;
2022/08/02 08:05:13;;;;;;;0.6;0.6;;;;;;;36.06;30.78418;940.7222;;;;
2022/08/02 08:07:44;;;;;;;0.6;0.6;;;;;;;35;35.74414;940.7233;;;;
2022/08/02 08:10:17;;;;;;;1.1;0.7;;;;;;;36.1;31.57324;940.7236;;;;
2022/08/02 08:12:46;;;;;;;0.9;0.8;;;;;;;36.88;30.73145;940.6923;;;;
2022/08/02 08:15:11;;;;;;;0.6;0.6;;;;;;;36.08;31.31836;940.6783;;;;
2022/08/02 08:17:40;;;;;;;0.6;0.6;;;;;;;33.84;32.74121;940.699;;;;
2022/08/02 08:20:12;;;;;;;1.6;0.7;;;;;;;31.85;38.16895;940.6661;;;;
2022/08/02 08:22:40;;;;;;;0.7;0.5;;;;;;;35.17;35.1416;940.6781;;;;
2022/08/02 08:25:05;;;;;;;0.8;0.8;;;;;;;34.24;35.51563;940.6411;;;;
2022/08/02 08:27:34;;;;;;;0.6;0.6;;;;;;;34.75;32.24121;940.6295;;;;
2022/08/02 08:29:59;;;;;;;1.2;0.7;;;;;;;35.6;32.5293;940.6033;;;;
2022/08/02 08:32:30;;;;;;;0.7;0.7;;;;;;;35.45;32.49414;940.65;;;;
2022/08/02 08:34:59;;;;;;;0.6;0.6;;;;;;;34.22;33.78027;940.647;;;;
2022/08/02 08:37:26;;;;;;;0.7;0.7;;;;;;;36.21;31;940.6541;;;;
2022/08/02 08:39:50;;;;;;;0.7;0.5;;;;;;;35.47;29.2959;940.6567;;;;
2022/08/02 08:42:15;;;;;;;0.7;0.7;;;;;;;33.67;30.64844;940.7003;;;;
2022/08/02 08:44:40;;;;;;;0.8;0.8;;;;;;;35.72;30.97949;940.6789;;;;
2022/08/02 08:47:10;;;;;;;2.8;1;;;;;;;35.55;29.44531;940.6347;;;;
2022/08/02 08:49:35;;;;;;;0.9;0.7;;;;;;;34.53;33.10449;940.6431;;;;
2022/08/02 08:52:00;;;;;;;0.8;0.8;;;;;;;35.41;31.79199;940.6643;;;;
2022/08/02 08:54:26;;;;;;;1.2;0.8;;;;;;;35.38;30.94434;940.6244;;;;
2022/08/02 08:56:53;;;;;;;1.5;0.9;;;;;;;34.37;31.6709;940.5908;;;;
2022/08/02 08:59:18;;;;;;;0.7;0.7;;;;;;;35.08;32.1543;940.5924;;;;
2022/08/02 09:01:45;;;;;;;0.8;0.8;;;;;;;34.88;31.58594;940.5098;;;;
2022/08/02 09:04:10;;;;;;;0.8;0.8;;;;;;;35.75;31.11426;940.4475;;;;
2022/08/02 09:06:37;;;;;;;3.8;0.9;;;;;;;34.79;32.54395;940.4264;;;;
2022/08/02 09:09:02;;;;;;;0.7;0.7;;;;;;;35.12;32.3623;940.433;;;;
2022/08/02 09:11:28;;;;;;;1;0.9;;;;;;;35.58;31.82813;940.3726;;;;
2022/08/02 09:13:53;;;;;;;0.8;0.8;;;;;;;35.99;30.2832;940.4389;;;;
2022/08/02 09:16:19;;;;;;;0.8;0.8;;;;;;;36.34;30.6582;940.4196;;;;
2022/08/02 09:18:46;;;;;;;0.8;0.7;;;;;;;34.57;34.10742;940.4324;;;;
2022/08/02 09:21:10;;;;;;;0.8;0.8;;;;;;;34.25;34.72266;940.4515;;;;
2022/08/02 09:23:37;;;;;;;0.7;0.7;;;;;;;34.39;34.16602;940.4095;;;;
2022/08/02 09:26:02;;;;;;;0.7;0.7;;;;;;;33.17;34.26758;940.4301;;;;
2022/08/02 09:28:31;;;;;;;0.8;0.8;;;;;;;34.14;34.62891;940.367;;;;
2022/08/02 09:30:58;;;;;;;0.8;0.8;;;;;;;35.13;31.79688;940.3764;;;;
2022/08/02 09:33:23;;;;;;;0.8;0.8;;;;;;;34.68;34.63379;940.3468;;;;
2022/08/02 09:35:54;;;;;;;0.7;0.7;;;;;;;33.61;36.03223;940.3142;;;;
2022/08/02 09:38:23;;;;;;;1.6;0.8;;;;;;;32.2;36.37695;940.3551;;;;
2022/08/02 09:40:51;;;;;;;1;0.8;;;;;;;31.38;39.43457;940.3511;;;;
2022/08/02 09:43:19;;;;;;;0.9;0.8;;;;;;;32.47;40.14063;940.3428;;;;
2022/08/02 09:45:44;;;;;;;0.6;0.6;;;;;;;32.67;38.27344;940.3127;;;;
2022/08/02 09:48:09;;;;;;;0.7;0.7;;;;;;;31.76;40.61719;940.2921;;;;
2022/08/02 09:50:34;;;;;;;0.8;0.8;;;;;;;31.93;40.88379;940.2722;;;;
2022/08/02 09:53:02;;;;;;;0.8;0.8;;;;;;;29.74;42.1416;940.2277;;;;
2022/08/02 09:55:27;;;;;;;1.1;0.8;;;;;;;29.5;46.34961;940.2076;;;;
2022/08/02 09:57:52;;;;;;;0.8;0.8;;;;;;;30.37;43.4668;940.201;;;;
2022/08/02 10:00:18;;;;;;;0.9;0.8;;;;;;;30.47;43.17773;940.2177;;;;
2022/08/02 10:02:44;;;;;;;0.8;0.8;;;;;;;31.24;38.65625;940.1558;;;;
2022/08/02 10:05:10;;;;;;;0.9;0.9;;;;;;;31.81;38.65723;940.1454;;;;
2022/08/02 10:07:37;;;;;;;0.8;0.8;;;;;;;29.81;40.00195;940.1395;;;;
2022/08/02 10:10:02;;;;;;;1.3;0.9;;;;;;;29.7;41.45801;940.0751;;;;
2022/08/02 10:12:32;;;;;;;1;0.8;;;;;;;29.97;43.0459;940.026;;;;
2022/08/02 10:15:01;;;;;;;0.9;0.8;;;;;;;30.21;44.20313;940.0338;;;;
2022/08/02 10:17:27;;;;;;;0.7;0.7;;;;;;;31.25;40.32031;940.0178;;;;
2022/08/02 10:19:57;;;;;;;0.7;0.7;;;;;;;32.1;38.37012;940.0634;;;;
2022/08/02 10:22:25;;;;;;;1;1;;;;;;;33.15;35.88672;940.0186;;;;
2022/08/02 10:24:54;;;;;;;0.9;0.8;;;;;;;32.65;38.39355;940.0687;;;;
2022/08/02 10:27:20;;;;;;;1;0.9;;;;;;;30.72;40.61914;939.9836;;;;
2022/08/02 10:29:49;;;;;;;1.2;0.8;;;;;;;30.59;42.16113;939.9724;;;;
2022/08/02 10:32:14;;;;;;;0.7;0.6;;;;;;;30.31;41.4668;939.9805;;;;
2022/08/02 10:34:44;;;;;;;0.8;0.8;;;;;;;31.31;41.0791;939.9761;;;;
2022/08/02 10:37:10;;;;;;;1;0.9;;;;;;;30.67;42.04785;939.9689;;;;
2022/08/02 10:39:35;;;;;;;0.8;0.8;;;;;;;30.82;41.2627;939.9856;;;;
2022/08/02 10:42:04;;;;;;;0.8;0.8;;;;;;;30.88;44.25586;939.9773;;;;
2022/08/02 10:44:29;;;;;;;0.8;0.8;;;;;;;30.3;44.02051;939.9874;;;;
2022/08/02 10:46:59;;;;;;;1;0.9;;;;;;;30.12;41.0791;939.9512;;;;
2022/08/02 10:49:28;;;;;;;1.7;1;;;;;;;30.06;41.96875;939.9699;;;;
2022/08/02 10:51:53;;;;;;;0.9;0.8;;;;;;;29.92;44.75879;939.916;;;;
2022/08/02 10:54:19;;;;;;;1.7;1;;;;;;;30.55;45.13184;939.9316;;;;
2022/08/02 10:56:43;;;;;;;1.4;0.8;;;;;;;31.27;41.72266;939.9167;;;;
2022/08/02 10:59:08;;;;;;;0.8;0.8;;;;;;;31.45;44.4082;939.8987;;;;
2022/08/02 11:01:35;;;;;;;0.8;0.8;;;;;;;31.95;40.44238;939.8809;;;;
2022/08/02 11:03:58;;;;;;;11.7;3.9;;;;;;;32.41;39.81152;939.9056;;;;
2022/08/02 11:06:24;;;;;;;4.9;2.2;;;;;;;33.04;38.46191;939.8739;;;;
2022/08/02 11:08:51;;;;;;;10.6;3.4;;;;;;;32.25;39.83398;939.8833;;;;
2022/08/02 11:11:16;;;;;;;1.1;1;;;;;;;30.99;44.85254;939.8026;;;;
2022/08/02 11:13:41;;;;;;;4.4;1.9;;;;;;;30.5;45.60547;939.7925;;;;
2022/08/02 11:16:13;;;;;;;1;0.9;;;;;;;31.8;40.53711;939.8338;;;;
2022/08/02 11:18:38;;;;;;;3.5;1.1;;;;;;;31.59;41.10449;939.7659;;;;
2022/08/02 11:21:03;;;;;;;1.5;0.8;;;;;;;31.78;40.61914;939.7477;;;;
2022/08/02 11:23:28;;;;;;;1.6;1;;;;;;;29.92;43.56641;939.5944;;;;
2022/08/02 11:25:54;;;;;;;1.1;0.8;;;;;;;29.08;45.9502;939.647;;;;
2022/08/02 11:28:19;;;;;;;0.9;0.9;;;;;;;30.12;46.10352;939.7008;;;;
2022/08/02 11:30:46;;;;;;;1.6;0.9;;;;;;;31.11;42.58105;939.6501;;;;
2022/08/02 11:33:11;;;;;;;1.2;0.8;;;;;;;30.23;42.65137;939.6259;;;;
2022/08/02 11:35:38;;;;;;;1.6;0.9;;;;;;;30.42;43.4707;939.6381;;;;
2022/08/02 11:38:03;;;;;;;0.9;0.9;;;;;;;30.73;43.69238;939.5533;;;;
2022/08/02 11:40:28;;;;;;;0.9;0.9;;;;;;;29.76;46.56836;939.5439;;;;
2022/08/02 11:42:55;;;;;;;0.9;0.9;;;;;;;30.49;45.16211;939.5203;;;;
2022/08/02 11:45:20;;;;;;;0.8;0.8;;;;;;;30.9;41.77246;939.4995;;;;
2022/08/02 11:47:45;;;;;;;1.4;0.9;;;;;;;30.44;44.17773;939.4192;;;;
2022/08/02 11:50:16;;;;;;;1;0.9;;;;;;;30.34;43.37988;939.3533;;;;
2022/08/02 11:52:46;;;;;;;0.9;0.9;;;;;;;30.05;45.10547;939.4018;;;;
2022/08/02 11:55:12;;;;;;;1.2;1.1;;;;;;;29.81;46.12012;939.4015;;;;
2022/08/02 11:57:36;;;;;;;0.9;0.9;;;;;;;29.53;44.73242;939.3792;;;;
2022/08/02 12:00:03;;;;;;;2.1;0.8;;;;;;;29.16;48.44727;939.311;;;;
2022/08/02 12:02:28;;;;;;;1.6;1.3;;;;;;;29.46;45.95313;939.2825;;;;
2022/08/02 12:04:56;;;;;;;2;1.4;;;;;;;28.95;47.7334;939.3105;;;;
2022/08/02 12:07:26;;;;;;;5.9;2.4;;;;;;;29;47.96582;939.4331;;;;
2022/08/02 12:09:51;;;;;;;9.7;4;;;;;;;29.34;46.66699;939.4891;;;;
2022/08/02 12:12:18;;;;;;;2.5;1.4;;;;;;;29.55;46.83105;939.3923;;;;
2022/08/02 12:14:44;;;;;;;1.6;1.3;;;;;;;29.93;44.9502;939.5;;;;
2022/08/02 12:19:37;;;;;;;5.3;1.9;;;;;;;29.81;45.4043;939.5062;;;;
2022/08/02 12:22:06;;;;;;;2.8;1.5;;;;;;;29.26;48.01758;939.5217;;;;
2022/08/02 12:24:31;;;;;;;2;1.3;;;;;;;29.13;45.75195;939.5245;;;;
2022/08/02 12:26:56;;;;;;;1.4;1.1;;;;;;;28.83;48.92188;939.4517;;;;
2022/08/02 12:29:21;;;;;;;2.2;1.2;;;;;;;28.5;50.17188;939.5248;;;;
2022/08/02 12:31:47;;;;;;;2.5;1.2;;;;;;;28.33;48.67871;939.4565;;;;
2022/08/02 12:34:13;;;;;;;1.9;1.2;;;;;;;28.25;50.48828;939.4684;;;;
2022/08/02 12:36:38;;;;;;;1.5;1.1;;;;;;;28.54;48.36816;939.4486;;;;
2022/08/02 12:39:02;;;;;;;2.7;1.5;;;;;;;28.97;46.42676;939.4428;;;;
2022/08/02 12:41:27;;;;;;;1.4;1.2;;;;;;;28.83;49.89844;939.4075;;;;
2022/08/02 12:43:53;;;;;;;1;1;;;;;;;29.13;46.64551;939.3466;;;;
2022/08/02 12:46:18;;;;;;;2.3;1.3;;;;;;;29.23;46.38281;939.3486;;;;
2022/08/02 12:48:43;;;;;;;1.1;1.1;;;;;;;29.18;46.70996;939.3566;;;;
2022/08/02 12:51:08;;;;;;;5.6;2.7;;;;;;;29.08;47.7832;939.315;;;;
2022/08/02 12:53:34;;;;;;;1.2;1.1;;;;;;;29.35;46.31152;939.2899;;;;
2022/08/02 12:55:58;;;;;;;1.1;0.9;;;;;;;28.84;48.31836;939.2905;;;;
2022/08/02 12:58:27;;;;;;;1.7;1;;;;;;;29.03;45.95605;939.2456;;;;
2022/08/02 13:00:52;;;;;;;1.8;1.5;;;;;;;28.79;48.05176;939.2372;;;;
2022/08/02 13:03:19;;;;;;;1.1;1;;;;;;;28.67;48.52441;939.3225;;;;
2022/08/02 13:05:44;;;;;;;1.3;1.2;;;;;;;29;45.08496;939.2776;;;;
2022/08/02 13:08:11;;;;;;;0.9;0.9;;;;;;;28.88;45.64355;939.2244;;;;
2022/08/02 13:10:37;;;;;;;2.7;1.1;;;;;;;28.86;47.84375;939.205;;;;
2022/08/02 13:13:04;;;;;;;0.9;0.9;;;;;;;28.88;46.32227;939.2916;;;;
2022/08/02 13:15:31;;;;;;;3.9;2.1;;;;;;;28.48;47.45801;939.3237;;;;
2022/08/02 13:17:57;;;;;;;4.7;2.4;;;;;;;28.46;47.37402;939.2886;;;;
2022/08/02 13:20:26;;;;;;;4.4;2.7;;;;;;;28.31;47.00098;939.3014;;;;
2022/08/02 13:22:50;;;;;;;1.1;1;;;;;;;28.25;46.16211;939.2151;;;;
2022/08/02 13:25:21;;;;;;;1.7;0.9;;;;;;;28.26;46.69824;939.2067;;;;
2022/08/02 13:27:49;;;;;;;3.5;1.2;;;;;;;27.95;50.50293;939.1512;;;;
2022/08/02 13:30:14;;;;;;;1.5;1.2;;;;;;;27.89;50.8877;939.1556;;;;
2022/08/02 13:32:41;;;;;;;1.6;1.1;;;;;;;28.1;49.49707;939.0458;;;;
2022/08/02 13:35:08;;;;;;;1;1;;;;;;;28.15;49.59863;939.1061;;;;
2022/08/02 13:37:32;;;;;;;5.1;2.4;;;;;;;28.52;49.69824;939.1031;;;;
2022/08/02 13:39:58;;;;;;;3.2;1.8;;;;;;;28.36;48.76563;939.152;;;;
2022/08/02 13:42:23;;;;;;;1.6;1.3;;;;;;;28.53;48.49805;939.0959;;;;
2022/08/02 13:44:54;;;;;;;3.7;2.2;;;;;;;28.39;48.2334;939.1074;;;;
2022/08/02 13:47:25;;;;;;;1.1;1;;;;;;;28.56;47.51465;939.1164;;;;
2022/08/02 13:49:52;;;;;;;1.3;1.2;;;;;;;28.31;47.64258;939.0858;;;;
2022/08/02 13:52:17;;;;;;;2.1;1.1;;;;;;;28.03;48.54004;939.0978;;;;
2022/08/02 13:54:44;;;;;;;1.3;1.1;;;;;;;27.88;48.13184;939.0574;;;;
2022/08/02 13:57:09;;;;;;;1.2;1.1;;;;;;;27.67;48.18066;939.1291;;;;
2022/08/02 13:59:36;;;;;;;1;1;;;;;;;27.8;48.5498;939.0289;;;;
2022/08/02 14:02:03;;;;;;;3.1;1.2;;;;;;;28;47.87109;939.0242;;;;
2022/08/02 14:04:29;;;;;;;1.2;1.1;;;;;;;28.19;48.35449;939.0298;;;;
2022/08/02 14:06:57;;;;;;;1;1;;;;;;;28.26;47.49414;939.037;;;;
2022/08/02 14:09:22;;;;;;;1.9;1.1;;;;;;;27.99;49.35547;939.0539;;;;
2022/08/02 14:11:48;;;;;;;0.8;0.8;;;;;;;28.06;48.06738;939.0642;;;;
2022/08/02 14:14:13;;;;;;;1.3;1.1;;;;;;;28.11;49.71191;938.9732;;;;
2022/08/02 14:16:42;;;;;;;2.3;1.3;;;;;;;28.31;47.89258;938.954;;;;
2022/08/02 14:19:10;;;;;;;1.3;1.2;;;;;;;27.96;50.02832;938.9821;;;;
2022/08/02 14:21:32;;;;;;;1.4;1.1;;;;;;;28.04;50.99902;938.9658;;;;
2022/08/02 14:23:57;;;;;;;1.3;1.2;;;;;;;28.19;49.45996;938.9095;;;;
2022/08/02 14:26:23;;;;;;;1.1;1;;;;;;;28.24;48.94238;938.9593;;;;
2022/08/02 14:28:49;;;;;;;1.2;1.1;;;;;;;28.34;48.2041;938.8956;;;;
2022/08/02 14:31:14;;;;;;;1.6;1.1;;;;;;;28.35;48.93066;938.8993;;;;
2022/08/02 14:33:40;;;;;;;1.5;1.1;;;;;;;28.17;48.33008;938.8793;;;;